createdAt,value
2022-08-17T00:01:51.397Z,99.90
2022-08-17T00:04:19.329Z,99.90
2022-08-17T00:06:49.496Z,99.90
2022-08-17T00:09:19.069Z,99.90
2022-08-17T00:12:35.050Z,99.90
2022-08-17T00:14:35.929Z,99.90
2022-08-17T00:17:04.466Z,99.90
2022-08-17T00:19:32.563Z,99.90
2022-08-17T00:22:32.472Z,99.90
2022-08-17T00:24:50.142Z,99.90
2022-08-17T00:27:17.156Z,99.90
2022-08-17T00:29:45.629Z,99.90
2022-08-17T00:33:13.740Z,99.90
2022-08-17T00:35:00.161Z,99.90
2022-08-17T00:37:26.942Z,99.90
2022-08-17T00:39:53.791Z,99.90
2022-08-17T00:42:20.628Z,99.90
2022-08-17T00:44:47.380Z,99.90
2022-08-17T00:47:14.135Z,99.90
2022-08-17T00:49:40.881Z,99.90
2022-08-17T00:52:15.459Z,99.90
2022-08-17T00:54:46.435Z,99.90
2022-08-17T00:57:21.072Z,99.90
2022-08-17T01:00:01.950Z,99.90
2022-08-17T01:02:42.061Z,99.90
2022-08-17T01:05:18.537Z,99.90
2022-08-17T01:07:47.673Z,99.90
2022-08-17T01:10:57.494Z,99.90
2022-08-17T01:13:04.016Z,99.90
2022-08-17T01:15:33.856Z,99.90
2022-08-17T01:18:00.513Z,99.90
2022-08-17T01:20:27.473Z,99.90
2022-08-17T01:22:54.331Z,99.90
2022-08-17T01:25:22.134Z,99.90
2022-08-17T01:27:49.410Z,99.90
2022-08-17T01:30:56.662Z,99.90
2022-08-17T01:33:04.217Z,99.90
2022-08-17T01:35:30.977Z,99.90
2022-08-17T01:37:57.605Z,99.90
2022-08-17T01:40:35.812Z,99.90
2022-08-17T01:43:09.178Z,99.90
2022-08-17T01:45:42.589Z,99.90
2022-08-17T01:48:11.838Z,99.90
2022-08-17T01:50:41.517Z,99.90
2022-08-17T01:53:13.473Z,99.90
2022-08-17T01:55:59.831Z,99.90
2022-08-17T01:58:26.740Z,99.90
2022-08-17T02:01:00.841Z,99.90
2022-08-17T02:03:28.722Z,99.90
2022-08-17T02:05:55.504Z,99.90
2022-08-17T02:08:38.865Z,99.90
2022-08-17T02:11:11.714Z,99.90
2022-08-17T02:13:38.698Z,99.90
2022-08-17T02:16:05.807Z,99.90
2022-08-17T02:18:33.016Z,99.90
2022-08-17T02:20:59.972Z,99.90
2022-08-17T02:23:28.877Z,99.90
2022-08-17T02:25:58.907Z,99.90
2022-08-17T02:28:26.081Z,99.90
2022-08-17T02:31:01.669Z,99.90
2022-08-17T02:33:42.765Z,99.90
2022-08-17T02:36:12.749Z,99.90
2022-08-17T02:38:41.049Z,99.90
2022-08-17T02:41:07.972Z,99.90
2022-08-17T02:43:34.874Z,99.90
2022-08-17T02:46:01.815Z,99.90
2022-08-17T02:48:30.507Z,99.90
2022-08-17T02:51:00.029Z,99.90
2022-08-17T02:53:27.569Z,99.90
2022-08-17T02:56:00.485Z,99.90
2022-08-17T02:58:34.743Z,99.90
2022-08-17T03:01:07.213Z,99.90
2022-08-17T03:03:35.161Z,99.90
2022-08-17T03:06:01.887Z,99.90
2022-08-17T03:08:28.885Z,99.90
2022-08-17T03:10:55.849Z,99.90
2022-08-17T03:13:22.542Z,99.90
2022-08-17T03:15:50.492Z,99.90
2022-08-17T03:18:25.476Z,99.90
2022-08-17T03:21:01.121Z,99.90
2022-08-17T03:23:29.652Z,99.90
2022-08-17T03:25:57.934Z,99.90
2022-08-17T03:28:25.875Z,99.90
2022-08-17T03:30:52.605Z,99.90
2022-08-17T03:33:20.950Z,99.90
2022-08-17T03:35:47.932Z,99.90
2022-08-17T03:38:16.973Z,99.90
2022-08-17T03:40:58.526Z,99.90
2022-08-17T03:43:29.385Z,99.90
2022-08-17T03:46:33.929Z,99.90
2022-08-17T03:49:22.874Z,99.90
2022-08-17T03:52:08.278Z,99.90
2022-08-17T03:54:53.696Z,99.90
2022-08-17T03:57:20.712Z,99.90
2022-08-17T03:59:49.461Z,99.90
2022-08-17T04:02:21.320Z,99.90
2022-08-17T04:04:50.784Z,99.90
2022-08-17T04:07:19.443Z,99.90
2022-08-17T04:09:46.279Z,99.90
2022-08-17T04:12:16.008Z,99.90
2022-08-17T04:14:53.657Z,99.90
2022-08-17T04:17:28.062Z,99.90
2022-08-17T04:19:55.943Z,99.90
2022-08-17T04:22:32.737Z,99.90
2022-08-17T04:25:16.242Z,99.90
2022-08-17T04:27:42.905Z,99.90
2022-08-17T04:30:10.502Z,99.90
2022-08-17T04:33:03.988Z,99.90
2022-08-17T04:35:37.423Z,99.90
2022-08-17T04:38:04.890Z,99.90
2022-08-17T04:40:52.919Z,99.90
2022-08-17T04:43:23.078Z,99.90
2022-08-17T04:45:59.387Z,99.90
2022-08-17T04:48:35.530Z,99.90
2022-08-17T04:51:06.021Z,99.90
2022-08-17T04:53:32.727Z,99.90
2022-08-17T04:55:59.337Z,99.90
2022-08-17T04:58:26.049Z,99.90
2022-08-17T05:00:53.215Z,99.90
2022-08-17T05:03:20.147Z,99.90
2022-08-17T05:05:49.658Z,99.90
2022-08-17T05:08:18.930Z,99.90
2022-08-17T05:10:46.734Z,99.90
2022-08-17T05:13:23.179Z,99.90
2022-08-17T05:15:55.021Z,99.90
2022-08-17T05:18:22.258Z,99.90
2022-08-17T05:20:52.375Z,99.90
2022-08-17T05:23:22.195Z,99.90
2022-08-17T05:25:51.275Z,99.90
2022-08-17T05:28:22.911Z,99.90
2022-08-17T05:30:51.412Z,99.90
2022-08-17T05:33:21.843Z,99.90
2022-08-17T05:35:51.773Z,99.90
2022-08-17T05:38:20.977Z,99.90
2022-08-17T05:40:48.120Z,99.90
2022-08-17T05:43:23.897Z,99.90
2022-08-17T05:46:00.185Z,99.90
2022-08-17T05:48:39.690Z,99.90
2022-08-17T05:51:23.813Z,99.90
2022-08-17T05:53:59.635Z,99.90
2022-08-17T05:56:49.150Z,99.90
2022-08-17T05:59:29.274Z,99.90
2022-08-17T06:02:15.461Z,99.90
2022-08-17T06:04:48.316Z,99.90
2022-08-17T06:07:28.684Z,99.90
2022-08-17T06:10:00.638Z,99.90
2022-08-17T06:13:02.163Z,99.90
2022-08-17T06:15:43.349Z,99.90
2022-08-17T06:18:15.912Z,99.90
2022-08-17T06:20:47.295Z,99.90
2022-08-17T06:23:51.789Z,99.90
2022-08-17T06:26:27.507Z,99.90
2022-08-17T06:29:18.875Z,99.90
2022-08-17T06:31:46.812Z,99.90
2022-08-17T06:34:13.672Z,99.90
2022-08-17T06:37:09.020Z,99.90
2022-08-17T06:39:48.004Z,99.90
2022-08-17T06:42:54.861Z,99.90
2022-08-17T06:45:35.149Z,99.90
2022-08-17T06:48:24.806Z,99.90
2022-08-17T06:51:03.463Z,99.90
2022-08-17T06:53:36.884Z,99.90
2022-08-17T06:56:09.196Z,99.90
2022-08-17T06:58:40.214Z,99.90
2022-08-17T07:01:16.893Z,99.90
2022-08-17T07:03:57.524Z,99.90
2022-08-17T07:06:29.219Z,99.90
2022-08-17T07:08:58.188Z,99.90
2022-08-17T07:11:35.989Z,99.90
2022-08-17T07:14:39.868Z,99.90
2022-08-17T07:17:13.243Z,99.90
2022-08-17T07:19:47.507Z,99.90
2022-08-17T07:22:30.441Z,99.90
2022-08-17T07:25:18.377Z,99.90
2022-08-17T07:27:51.195Z,99.90
2022-08-17T07:30:27.044Z,99.90
2022-08-17T07:32:59.321Z,99.90
2022-08-17T07:35:37.615Z,99.90
2022-08-17T07:38:25.330Z,99.90
2022-08-17T07:40:57.494Z,99.90
2022-08-17T07:43:31.939Z,99.90
2022-08-17T07:46:23.652Z,99.90
2022-08-17T07:48:53.477Z,99.90
2022-08-17T07:51:44.269Z,99.90
2022-08-17T07:54:22.923Z,99.90
2022-08-17T07:56:55.711Z,99.90
2022-08-17T07:59:34.533Z,99.90
2022-08-17T08:02:14.687Z,99.90
2022-08-17T08:05:01.498Z,99.90
2022-08-17T08:07:34.583Z,99.90
2022-08-17T08:10:07.312Z,99.90
2022-08-17T08:12:47.239Z,99.90
2022-08-17T08:15:22.191Z,99.90
2022-08-17T08:17:53.998Z,99.90
2022-08-17T08:20:53.474Z,99.90
2022-08-17T08:23:33.523Z,99.90
2022-08-17T08:26:37.526Z,99.90
2022-08-17T08:29:28.169Z,99.90
2022-08-17T08:32:25.834Z,99.90
2022-08-17T08:35:32.386Z,99.90
2022-08-17T08:38:02.069Z,99.90
2022-08-17T08:40:40.262Z,99.90
2022-08-17T08:43:22.543Z,99.90
2022-08-17T08:46:21.261Z,99.90
2022-08-17T08:49:16.939Z,99.90
2022-08-17T08:51:55.491Z,99.90
2022-08-17T08:54:44.275Z,99.90
2022-08-17T08:57:26.432Z,99.90
2022-08-17T09:00:09.571Z,99.90
2022-08-17T09:03:02.946Z,99.90
2022-08-17T09:05:54.048Z,99.90
2022-08-17T09:08:29.602Z,99.90
2022-08-17T09:11:24.347Z,99.90
2022-08-17T09:14:22.115Z,99.90
2022-08-17T09:17:04.473Z,99.90
2022-08-17T09:19:35.154Z,99.90
2022-08-17T09:22:20.625Z,99.90
2022-08-17T09:24:57.067Z,99.90
2022-08-17T09:27:33.035Z,99.90
2022-08-17T09:30:04.064Z,99.90
2022-08-17T09:32:46.977Z,99.90
2022-08-17T09:35:25.067Z,99.90
2022-08-17T09:38:05.563Z,99.90
2022-08-17T09:40:57.052Z,99.90
2022-08-17T09:43:43.678Z,99.90
2022-08-17T09:46:18.437Z,99.90
2022-08-17T09:49:03.944Z,99.90
2022-08-17T09:51:35.824Z,99.90
2022-08-17T09:54:34.739Z,99.90
2022-08-17T09:57:28.633Z,99.90
2022-08-17T10:00:18.833Z,99.90
2022-08-17T10:03:16.277Z,99.90
2022-08-17T10:06:08.278Z,99.90
2022-08-17T10:08:51.852Z,99.90
2022-08-17T10:12:07.428Z,99.90
2022-08-17T10:14:43.773Z,99.90
2022-08-17T10:17:27.766Z,99.90
2022-08-17T10:20:06.228Z,99.90
2022-08-17T10:23:02.733Z,99.90
2022-08-17T10:25:55.276Z,99.90
2022-08-17T10:28:29.873Z,99.90
2022-08-17T10:31:23.253Z,99.90
2022-08-17T10:34:04.981Z,99.90
2022-08-17T10:36:37.792Z,99.90
2022-08-17T10:39:32.026Z,99.90
2022-08-17T10:42:16.001Z,99.90
2022-08-17T10:45:05.280Z,99.90
2022-08-17T10:48:07.873Z,99.90
2022-08-17T10:51:06.032Z,99.90
2022-08-17T10:53:32.596Z,99.70
2022-08-17T10:56:14.523Z,99.30
2022-08-17T10:59:00.752Z,99.90
2022-08-17T11:01:37.793Z,99.90
2022-08-17T11:04:08.420Z,99.10
2022-08-17T11:06:49.517Z,99.90
2022-08-17T11:09:19.868Z,99.90
2022-08-17T11:11:59.388Z,99.90
2022-08-17T11:14:52.571Z,99.90
2022-08-17T11:17:36.947Z,99.90
2022-08-17T11:20:35.665Z,99.90
2022-08-17T11:23:37.659Z,99.90
2022-08-17T11:26:26.459Z,99.90
2022-08-17T11:29:05.088Z,99.90
2022-08-17T11:31:38.498Z,99.90
2022-08-17T11:34:26.186Z,99.90
2022-08-17T11:37:11.207Z,99.90
2022-08-17T11:40:11.625Z,99.90
2022-08-17T11:43:00.444Z,99.90
2022-08-17T11:45:45.317Z,99.90
2022-08-17T11:48:53.735Z,99.90
2022-08-17T11:51:44.351Z,99.90
2022-08-17T11:54:34.357Z,99.90
2022-08-17T11:57:26.471Z,99.90
2022-08-17T11:59:59.091Z,99.90
2022-08-17T12:02:32.446Z,99.90
2022-08-17T12:05:05.100Z,99.30
2022-08-17T12:07:47.576Z,98.70
2022-08-17T12:10:17.498Z,98.30
2022-08-17T12:12:48.176Z,98.70
2022-08-17T12:15:18.775Z,97.10
2022-08-17T12:17:57.299Z,97.50
2022-08-17T12:20:33.263Z,94.70
2022-08-17T12:23:18.839Z,94.20
2022-08-17T12:26:00.890Z,92.30
2022-08-17T12:28:31.258Z,93.20
2022-08-17T12:31:05.750Z,93.00
2022-08-17T12:33:35.367Z,90.80
2022-08-17T12:36:06.269Z,90.30
2022-08-17T12:38:35.875Z,91.10
2022-08-17T12:41:25.025Z,91.20
2022-08-17T12:44:02.813Z,90.10
2022-08-17T12:46:48.987Z,88.60
2022-08-17T12:49:36.882Z,80.60
2022-08-17T12:52:17.652Z,79.80
2022-08-17T12:54:44.257Z,75.10
2022-08-17T12:57:40.904Z,76.30
2022-08-17T13:00:12.286Z,74.40
2022-08-17T13:02:57.382Z,72.70
2022-08-17T13:05:28.870Z,73.40
2022-08-17T13:07:57.927Z,74.20
2022-08-17T13:10:32.516Z,72.70
2022-08-17T13:13:03.650Z,73.10
2022-08-17T13:15:53.151Z,75.00
2022-08-17T13:18:31.499Z,76.40
2022-08-17T13:20:59.388Z,77.30
2022-08-17T13:23:29.134Z,78.00
2022-08-17T13:26:01.644Z,76.10
2022-08-17T13:28:35.500Z,77.60
2022-08-17T13:31:28.264Z,75.60
2022-08-17T13:34:18.208Z,75.00
2022-08-17T13:36:46.558Z,71.90
2022-08-17T13:39:25.606Z,70.40
2022-08-17T13:41:55.302Z,70.70
2022-08-17T13:44:39.558Z,67.50
2022-08-17T13:47:16.975Z,67.20
2022-08-17T13:49:49.271Z,66.00
2022-08-17T13:52:38.934Z,62.50
2022-08-17T13:55:19.217Z,62.60
2022-08-17T13:57:49.521Z,61.80
2022-08-17T14:00:33.606Z,61.10
2022-08-17T14:03:02.724Z,60.70
2022-08-17T14:05:30.976Z,63.50
2022-08-17T14:08:43.335Z,65.00
2022-08-17T14:11:09.996Z,67.30
2022-08-17T14:13:37.068Z,66.80
2022-08-17T14:16:03.864Z,68.00
2022-08-17T14:18:42.023Z,67.20
2022-08-17T14:21:17.499Z,67.90
2022-08-17T14:23:49.080Z,67.30
2022-08-17T14:26:20.973Z,66.30
2022-08-17T14:28:54.507Z,66.10
2022-08-17T14:31:21.954Z,66.90
2022-08-17T14:33:48.587Z,66.70
2022-08-17T14:36:15.205Z,68.00
2022-08-17T14:38:41.798Z,66.70
2022-08-17T14:41:08.737Z,65.70
2022-08-17T14:43:35.648Z,62.80
2022-08-17T14:46:02.358Z,59.40
2022-08-17T14:48:29.134Z,58.80
2022-08-17T14:50:58.850Z,58.30
2022-08-17T14:53:25.526Z,57.10
2022-08-17T14:55:52.241Z,58.00
2022-08-17T14:58:19.364Z,56.90
2022-08-17T15:00:46.034Z,56.10
2022-08-17T15:03:14.420Z,56.30
2022-08-17T15:05:41.398Z,56.20
2022-08-17T15:08:08.243Z,55.70
2022-08-17T15:10:35.858Z,55.40
2022-08-17T15:13:02.654Z,55.40
2022-08-17T15:15:29.818Z,56.10
2022-08-17T15:17:57.251Z,55.20
2022-08-17T15:20:27.869Z,54.70
2022-08-17T15:22:55.899Z,55.70
2022-08-17T15:25:25.071Z,55.70
2022-08-17T15:27:52.357Z,56.00
2022-08-17T15:30:20.041Z,55.70
2022-08-17T15:32:51.204Z,55.20
2022-08-17T15:35:28.076Z,54.20
2022-08-17T15:38:04.555Z,55.10
2022-08-17T15:40:31.572Z,54.30
2022-08-17T15:43:11.189Z,53.80
2022-08-17T15:45:39.108Z,53.60
2022-08-17T15:48:05.993Z,52.00
2022-08-17T15:50:32.885Z,51.80
2022-08-17T15:53:01.189Z,51.70
2022-08-17T15:55:30.198Z,50.40
2022-08-17T15:57:56.901Z,51.90
2022-08-17T16:00:24.056Z,51.60
2022-08-17T16:03:46.298Z,51.40
2022-08-17T16:05:37.836Z,52.20
2022-08-17T16:08:07.613Z,51.70
2022-08-17T16:10:35.029Z,52.40
2022-08-17T16:13:03.730Z,52.70
2022-08-17T16:15:31.440Z,53.30
2022-08-17T16:17:58.109Z,53.70
2022-08-17T16:20:24.696Z,54.00
2022-08-17T16:22:51.638Z,53.40
2022-08-17T16:25:51.985Z,53.70
2022-08-17T16:28:16.382Z,53.20
2022-08-17T16:30:43.536Z,54.40
2022-08-17T16:33:14.992Z,54.10
2022-08-17T16:35:42.040Z,54.80
2022-08-17T16:38:09.459Z,55.30
2022-08-17T16:40:36.448Z,55.00
2022-08-17T16:43:04.462Z,55.00
2022-08-17T16:45:39.865Z,54.90
2022-08-17T16:48:07.825Z,56.80
2022-08-17T16:50:37.592Z,57.20
2022-08-17T16:53:17.657Z,57.60
2022-08-17T16:55:45.965Z,57.80
2022-08-17T16:58:12.948Z,58.60
2022-08-17T17:00:41.766Z,59.00
2022-08-17T17:03:19.594Z,59.00
2022-08-17T17:05:55.205Z,58.70
2022-08-17T17:08:33.077Z,60.50
2022-08-17T17:11:09.163Z,61.10
2022-08-17T17:13:54.289Z,62.00
2022-08-17T17:16:26.617Z,62.00
2022-08-17T17:19:10.219Z,62.50
2022-08-17T17:21:43.785Z,63.30
2022-08-17T17:24:17.078Z,63.70
2022-08-17T17:27:07.312Z,64.00
2022-08-17T17:30:12.376Z,62.70
2022-08-17T17:33:01.617Z,63.80
2022-08-17T17:35:44.702Z,64.60
2022-08-17T17:38:18.730Z,65.40
2022-08-17T17:40:50.029Z,64.60
2022-08-17T17:43:38.937Z,65.60
2022-08-17T17:46:29.068Z,64.90
2022-08-17T17:49:00.326Z,65.40
2022-08-17T17:52:07.874Z,67.50
2022-08-17T17:55:05.377Z,68.30
2022-08-17T17:57:56.093Z,69.80
2022-08-17T18:00:54.798Z,70.10
2022-08-17T18:04:01.717Z,70.10
2022-08-17T18:06:46.434Z,69.80
2022-08-17T18:09:22.090Z,70.60
2022-08-17T18:12:12.049Z,71.60
2022-08-17T18:15:10.004Z,72.50
2022-08-17T18:17:39.501Z,72.60
2022-08-17T18:20:07.006Z,73.00
2022-08-17T18:22:34.068Z,74.00
2022-08-17T18:25:00.725Z,74.30
2022-08-17T18:27:38.707Z,75.70
2022-08-17T18:30:14.707Z,76.20
2022-08-17T18:32:43.558Z,76.90
2022-08-17T18:35:14.221Z,78.80
2022-08-17T18:37:44.828Z,78.80
2022-08-17T18:40:17.691Z,78.30
2022-08-17T18:42:59.811Z,79.90
2022-08-17T18:45:43.394Z,80.30
2022-08-17T18:48:27.935Z,80.50
2022-08-17T18:50:58.796Z,82.10
2022-08-17T18:53:39.467Z,81.90
2022-08-17T18:56:20.147Z,82.20
2022-08-17T18:59:24.593Z,82.90
2022-08-17T19:02:34.547Z,86.40
2022-08-17T19:05:36.704Z,86.40
2022-08-17T19:08:24.058Z,87.00
2022-08-17T19:11:17.453Z,88.00
2022-08-17T19:13:57.479Z,89.20
2022-08-17T19:16:29.202Z,89.40
2022-08-17T19:19:22.148Z,90.00
2022-08-17T19:21:54.721Z,91.70
2022-08-17T19:24:25.996Z,92.10
2022-08-17T19:27:20.484Z,92.80
2022-08-17T19:29:50.729Z,93.60
2022-08-17T19:32:21.953Z,94.00
2022-08-17T19:34:49.237Z,94.80
2022-08-17T19:37:34.174Z,95.20
2022-08-17T19:40:51.641Z,95.40
2022-08-17T19:43:42.353Z,96.40
2022-08-17T19:46:35.569Z,97.60
2022-08-17T19:49:33.415Z,97.80
2022-08-17T19:52:37.618Z,98.80
2022-08-17T19:55:20.601Z,99.70
2022-08-17T19:58:18.661Z,99.60
2022-08-17T20:00:51.056Z,99.80
2022-08-17T20:03:22.635Z,99.90
2022-08-17T20:06:11.935Z,99.90
2022-08-17T20:08:57.325Z,99.90
2022-08-17T20:11:58.367Z,99.90
2022-08-17T20:14:35.410Z,99.90
2022-08-17T20:17:03.222Z,99.90
2022-08-17T20:19:52.035Z,99.90
2022-08-17T20:22:59.229Z,99.90
2022-08-17T20:25:37.861Z,99.90
2022-08-17T20:28:28.694Z,99.90
2022-08-17T20:30:56.320Z,99.90
2022-08-17T20:33:34.174Z,99.90
2022-08-17T20:36:11.698Z,99.90
2022-08-17T20:38:43.898Z,99.90
2022-08-17T20:41:15.026Z,99.90
2022-08-17T20:43:47.940Z,99.90
2022-08-17T20:46:22.628Z,99.90
2022-08-17T20:48:53.527Z,99.90
2022-08-17T20:51:34.541Z,99.90
2022-08-17T20:54:07.635Z,99.90
2022-08-17T20:56:43.556Z,99.90
2022-08-17T20:59:31.572Z,99.90
2022-08-17T21:02:17.690Z,99.90
2022-08-17T21:04:54.777Z,99.90
2022-08-17T21:07:43.450Z,99.90
2022-08-17T21:10:15.815Z,99.90
2022-08-17T21:12:57.388Z,99.90
2022-08-17T21:15:34.833Z,99.90
2022-08-17T21:18:14.774Z,99.90
2022-08-17T21:21:07.235Z,99.90
2022-08-17T21:23:58.867Z,99.90
2022-08-17T21:26:50.696Z,99.90
2022-08-17T21:29:30.994Z,99.90
2022-08-17T21:31:59.300Z,99.90
2022-08-17T21:34:34.592Z,99.90
2022-08-17T21:37:21.030Z,99.90
2022-08-17T21:40:18.262Z,99.90
2022-08-17T21:42:52.660Z,99.90
2022-08-17T21:45:28.862Z,99.90
2022-08-17T21:48:13.794Z,99.90
2022-08-17T21:50:47.443Z,99.90
2022-08-17T21:53:33.085Z,99.90
2022-08-17T21:56:00.683Z,99.90
2022-08-17T21:58:34.128Z,99.90
2022-08-17T22:01:29.045Z,99.90
2022-08-17T22:04:00.660Z,99.90
2022-08-17T22:06:35.195Z,99.90
2022-08-17T22:09:06.837Z,99.90
2022-08-17T22:11:56.212Z,99.90
2022-08-17T22:14:52.448Z,99.90
2022-08-17T22:17:45.200Z,99.90
2022-08-17T22:20:18.566Z,99.90
2022-08-17T22:23:06.781Z,99.90
2022-08-17T22:25:37.465Z,99.90
2022-08-17T22:28:07.961Z,99.90
2022-08-17T22:30:43.705Z,99.90
2022-08-17T22:33:41.515Z,99.90
2022-08-17T22:36:25.932Z,99.90
2022-08-17T22:39:01.891Z,99.90
2022-08-17T22:42:02.351Z,99.90
2022-08-17T22:44:37.412Z,99.90
2022-08-17T22:47:22.049Z,99.90
2022-08-17T22:49:53.797Z,99.90
2022-08-17T22:52:31.588Z,99.90
2022-08-17T22:55:32.145Z,99.90
2022-08-17T22:58:18.594Z,99.90
2022-08-17T23:00:48.280Z,99.90
2022-08-17T23:03:23.592Z,99.90
2022-08-17T23:06:05.160Z,99.90
2022-08-17T23:08:35.856Z,99.90
2022-08-17T23:11:02.990Z,99.90
2022-08-17T23:13:33.290Z,99.90
2022-08-17T23:15:59.934Z,99.90
2022-08-17T23:18:27.248Z,99.90
2022-08-17T23:20:57.235Z,99.90
2022-08-17T23:23:26.377Z,99.90
2022-08-17T23:25:54.551Z,99.90
2022-08-17T23:28:21.732Z,99.90
2022-08-17T23:30:48.534Z,99.90
2022-08-17T23:33:29.739Z,99.90
2022-08-17T23:35:59.568Z,99.90
2022-08-17T23:38:27.462Z,99.90
2022-08-17T23:40:55.349Z,99.90
2022-08-17T23:43:25.261Z,99.90
2022-08-17T23:45:57.285Z,99.90
2022-08-17T23:48:32.483Z,99.90
2022-08-17T23:51:18.909Z,99.90
2022-08-17T23:53:49.913Z,99.90
2022-08-17T23:56:25.708Z,99.90
2022-08-17T23:58:54.727Z,99.90
